Central City, South Dakota
Current Conditions -  °F | °C
As of 6:35 AM on Wednesday 22 Oct 2014 (Local Time) from KSPF Reporting Station
Clear Clear  
Wind Chill: 40°   Ceiling: Unl
Heat Index: 46°   Visibility: 10mi
Dew Point: 34°   Wind: 15mph
Humidity: 62%   Direction: 280°W
Pressure: 30"   Gusts: 18mph
Location:  44.253°N, 103.912°W
Report Text: KSPF 221235Z AUTO 28013G16KT 10SM CLR 08/01 A3000 RMK AO2
Loading
Personal Weather Stations






























Interactive Weather Map
Tropical Storm Tracking
New forecast layout! Learn more

10-Day Weather Forecast

Advertisements
Track Severe Weather on mobile